Time;durP1;ratioP1;P1;durP2;ratioP2;P2;SDS_P1;SDS_P2;PMS_P1;PMS_P2;Temp;Humidity;BMP_temperature;BMP_pressure;BME280_temperature;BME280_humidity;BME280_pressure;Samples;Min_cycle;Max_cycle;Signal;HPM_P1;HPM_P2
2024/02/07 00:00:04;;;;;;;0.50;0.50;;;;;;;-2.33;89.55;97896.81;5125543;28;20036;-67
2024/02/07 00:02:29;;;;;;;0.52;0.52;;;;;;;-2.31;89.48;97903.59;5106999;28;20023;-67
2024/02/07 00:04:54;;;;;;;0.50;0.50;;;;;;;-2.33;89.38;97912.91;5125489;28;20019;-67
2024/02/07 00:07:20;;;;;;;0.60;0.60;;;;;;;-2.42;89.11;97915.41;5125371;28;20016;-67
2024/02/07 00:09:45;;;;;;;0.50;0.50;;;;;;;-2.41;89.13;97922.22;5125157;28;20022;-67
2024/02/07 00:12:10;;;;;;;0.50;0.50;;;;;;;-2.42;88.87;97920.50;5124953;28;20024;-67
2024/02/07 00:14:36;;;;;;;0.50;0.50;;;;;;;-2.40;88.93;97942.53;5125412;28;20023;-67
2024/02/07 00:17:01;;;;;;;1.08;0.98;;;;;;;-2.42;88.82;97935.75;5125356;28;20469;-67
2024/02/07 00:19:27;;;;;;;0.50;0.50;;;;;;;-2.45;88.71;97939.13;5125235;28;20079;-66
2024/02/07 00:21:52;;;;;;;0.50;0.50;;;;;;;-2.43;88.88;97936.59;5125185;28;20024;-66
2024/02/07 00:24:17;;;;;;;0.65;0.52;;;;;;;-2.41;88.81;97933.22;5125087;28;20019;-67
2024/02/07 00:26:43;;;;;;;0.70;0.70;;;;;;;-2.40;88.39;97926.44;5125093;28;20028;-67
2024/02/07 00:29:08;;;;;;;0.88;0.80;;;;;;;-2.43;88.04;97941.69;5125040;28;20028;-67
2024/02/07 00:31:33;;;;;;;0.60;0.60;;;;;;;-2.43;88.26;97944.22;5125263;28;20019;-67
2024/02/07 00:33:59;;;;;;;1.27;0.70;;;;;;;-2.45;88.42;97939.13;5125156;28;20082;-66
2024/02/07 00:36:24;;;;;;;0.75;0.75;;;;;;;-2.43;88.26;97939.13;5125082;28;20024;-67
2024/02/07 00:38:49;;;;;;;0.50;0.50;;;;;;;-2.37;88.13;97931.53;5124947;28;20352;-67
2024/02/07 00:41:22;;;;;;;0.50;0.50;;;;;;;-2.39;88.15;97948.47;5106902;28;20045;-68
2024/02/07 00:43:48;;;;;;;0.80;0.80;;;;;;;-2.37;88.09;97962.03;5125079;28;20443;-67
2024/02/07 00:46:14;;;;;;;0.70;0.70;;;;;;;-2.36;88.05;97956.09;5107007;28;20137;-67
2024/02/07 00:48:40;;;;;;;0.55;0.55;;;;;;;-2.55;87.60;97932.28;5124742;28;20019;-66
2024/02/07 00:51:06;;;;;;;0.70;0.70;;;;;;;-2.44;87.61;97950.13;5125153;28;20023;-68
2024/02/07 00:53:32;;;;;;;0.77;0.77;;;;;;;-2.63;87.56;97939.88;5124809;28;20448;-67
2024/02/07 00:55:57;;;;;;;0.75;0.75;;;;;;;-2.53;87.43;97951.81;5125077;28;20034;-67
2024/02/07 00:58:22;;;;;;;1.02;0.90;;;;;;;-2.55;87.41;97978.03;5106351;28;20051;-67
2024/02/07 01:00:48;;;;;;;1.55;1.15;;;;;;;-2.57;87.37;97979.72;5125164;28;20019;-67
2024/02/07 01:03:14;;;;;;;0.60;0.60;;;;;;;-2.60;87.31;97980.53;5125149;28;20042;-68
2024/02/07 01:05:39;;;;;;;1.27;1.17;;;;;;;-2.61;87.49;97978.84;5125119;28;20102;-67
2024/02/07 01:08:04;;;;;;;2.72;0.98;;;;;;;-2.57;87.33;97980.56;5124494;28;20027;-67
2024/02/07 01:10:30;;;;;;;1.50;1.25;;;;;;;-2.56;86.92;97983.97;5124954;28;20121;-67
2024/02/07 01:12:55;;;;;;;0.75;0.70;;;;;;;-2.60;87.08;97980.53;5106605;28;20101;-67
2024/02/07 01:15:20;;;;;;;0.85;0.80;;;;;;;-2.62;87.28;97984.78;5124821;28;20051;-68
2024/02/07 01:17:46;;;;;;;0.57;0.57;;;;;;;-2.56;87.23;97992.44;5106204;28;20032;-66
2024/02/07 01:20:11;;;;;;;0.50;0.50;;;;;;;-2.54;86.93;97985.66;5124860;28;20023;-67
2024/02/07 01:22:37;;;;;;;0.50;0.50;;;;;;;-2.58;87.04;97995.78;5105901;28;20054;-67
2024/02/07 01:25:05;;;;;;;0.60;0.60;;;;;;;-2.54;87.08;97989.91;5127156;28;20485;-67
2024/02/07 01:27:30;;;;;;;0.60;0.60;;;;;;;-2.59;86.97;97989.88;5128376;28;20364;-66
2024/02/07 01:29:56;;;;;;;0.50;0.50;;;;;;;-2.57;86.99;97994.97;5128404;28;20044;-68
2024/02/07 01:32:22;;;;;;;0.50;0.50;;;;;;;-2.52;86.78;98011.94;5128673;28;20030;-66
2024/02/07 01:34:47;;;;;;;0.57;0.57;;;;;;;-2.51;87.00;98002.63;5109685;28;20467;-67
2024/02/07 01:37:14;;;;;;;0.50;0.50;;;;;;;-2.55;86.88;98014.47;5128168;28;20025;-67
2024/02/07 01:39:40;;;;;;;0.70;0.70;;;;;;;-2.58;86.70;98022.06;5128104;28;20020;-66
2024/02/07 01:42:05;;;;;;;0.50;0.50;;;;;;;-2.60;86.76;98021.19;5128078;28;20084;-66
2024/02/07 01:44:31;;;;;;;0.60;0.60;;;;;;;-2.68;86.39;98017.75;5127963;28;20034;-67
2024/02/07 01:49:53;;;;;;;0.52;0.52;;;;;;;-2.74;86.29;98021.97;5105599;28;20039;-67
2024/02/07 01:52:21;;;;;;;3.83;1.58;;;;;;;-2.76;86.35;98021.09;5127960;28;20486;-68
2024/02/07 01:54:47;;;;;;;0.70;0.70;;;;;;;-2.78;86.22;98027.84;5127324;28;20127;-67
2024/02/07 01:57:13;;;;;;;1.15;0.95;;;;;;;-2.79;86.11;98018.53;5127752;28;20020;-67
2024/02/07 01:59:40;;;;;;;0.65;0.65;;;;;;;-2.78;86.23;98027.84;5127384;28;20043;-67
2024/02/07 02:02:05;;;;;;;0.50;0.50;;;;;;;-2.75;86.17;98037.19;5126629;28;20022;-67
2024/02/07 02:04:33;;;;;;;0.50;0.50;;;;;;;-2.78;86.19;98030.38;5127312;28;20047;-67
2024/02/07 02:06:58;;;;;;;0.55;0.55;;;;;;;-2.74;86.18;98038.88;5127656;28;20114;-68
2024/02/07 02:09:24;;;;;;;0.57;0.57;;;;;;;-2.69;86.20;98041.47;5127460;28;20114;-67
2024/02/07 02:11:51;;;;;;;0.60;0.60;;;;;;;-2.68;86.39;98038.94;5127610;28;20028;-67
2024/02/07 02:14:18;;;;;;;3.53;1.90;;;;;;;-2.59;86.38;98053.41;5127404;28;20027;-66
2024/02/07 02:16:43;;;;;;;0.50;0.50;;;;;;;-2.62;86.30;98035.59;5109096;28;20038;-67
2024/02/07 02:19:09;;;;;;;0.50;0.50;;;;;;;-2.55;86.22;98044.94;5108799;28;20020;-67
2024/02/07 02:21:51;;;;;;;1.58;1.08;;;;;;;-2.54;86.12;98046.63;5127366;28;20110;-67
2024/02/07 02:24:17;;;;;;;0.50;0.50;;;;;;;-2.53;85.96;98058.53;5127231;28;20111;-67
2024/02/07 02:27:10;;;;;;;0.50;0.50;;;;;;;-2.55;86.29;98059.31;5127303;28;20024;-67
2024/02/07 02:29:42;;;;;;;0.50;0.50;;;;;;;-2.54;86.14;98050.88;5108738;28;20383;-67
2024/02/07 02:32:08;;;;;;;0.70;0.70;;;;;;;-2.52;85.90;98065.28;5108804;28;20080;-68
2024/02/07 02:34:36;;;;;;;0.60;0.60;;;;;;;-2.53;85.61;98068.69;5126525;28;20104;-68
2024/02/07 02:37:02;;;;;;;0.80;0.80;;;;;;;-2.59;85.70;98063.56;5127013;28;20027;-68
2024/02/07 02:39:28;;;;;;;1.05;1.05;;;;;;;-2.51;85.85;98066.16;5126988;28;20080;-67
2024/02/07 02:41:55;;;;;;;0.60;0.60;;;;;;;-2.46;85.86;98074.63;5108573;28;20091;-67
2024/02/07 02:44:20;;;;;;;0.75;0.75;;;;;;;-2.48;85.81;98061.09;5126761;28;20072;-67
2024/02/07 02:46:46;;;;;;;0.60;0.60;;;;;;;-2.50;85.45;98060.22;5108766;28;20445;-67
2024/02/07 02:49:11;;;;;;;0.60;0.60;;;;;;;-2.53;85.57;98083.94;5108454;28;20034;-68
2024/02/07 02:51:37;;;;;;;0.70;0.70;;;;;;;-2.51;85.30;98086.47;5126777;28;20022;-67
2024/02/07 02:54:02;;;;;;;0.68;0.68;;;;;;;-2.56;85.47;98088.13;5108313;28;20019;-67
2024/02/07 02:56:31;;;;;;;1.17;1.00;;;;;;;-2.50;85.12;98091.56;5126787;28;20026;-67
2024/02/07 02:58:56;;;;;;;0.50;0.50;;;;;;;-2.68;85.19;98074.50;5125814;28;20069;-67
2024/02/07 03:01:23;;;;;;;0.55;0.55;;;;;;;-2.53;85.15;98083.94;5108210;28;20118;-67
2024/02/07 03:03:53;;;;;;;0.50;0.50;;;;;;;-2.50;85.08;98089.03;5126418;28;20076;-67
2024/02/07 03:06:28;;;;;;;0.50;0.50;;;;;;;-2.51;85.10;98099.19;5108437;28;20024;-67
2024/02/07 03:09:06;;;;;;;0.50;0.50;;;;;;;-2.56;85.13;98094.06;5126032;28;20024;-67
2024/02/07 03:11:32;;;;;;;1.08;1.08;;;;;;;-2.49;85.13;98100.88;5126558;28;20035;-69
2024/02/07 03:13:57;;;;;;;0.50;0.50;;;;;;;-2.51;84.98;98101.72;5107926;28;20027;-66
2024/02/07 03:16:22;;;;;;;0.50;0.50;;;;;;;-2.53;84.97;98096.63;5126321;28;20028;-67
2024/02/07 03:18:48;;;;;;;0.77;0.77;;;;;;;-2.59;85.10;98085.56;5107811;28;20031;-67
2024/02/07 03:21:13;;;;;;;0.68;0.68;;;;;;;-2.47;84.91;98105.09;5126337;28;20023;-68
2024/02/07 03:23:38;;;;;;;0.70;0.70;;;;;;;-2.60;84.40;98097.41;5107593;28;20471;-68
2024/02/07 03:26:04;;;;;;;0.60;0.60;;;;;;;-2.56;84.43;98118.63;5126284;28;20061;-67
2024/02/07 03:28:33;;;;;;;27.33;2.58;;;;;;;-2.59;84.35;98118.59;5107643;28;20067;-68
2024/02/07 03:30:58;;;;;;;2.58;1.30;;;;;;;-2.57;84.40;98127.09;5126153;28;20027;-68
2024/02/07 03:33:28;;;;;;;0.60;0.60;;;;;;;-2.57;83.85;98124.53;5126001;28;20069;-67
2024/02/07 03:35:55;;;;;;;0.50;0.50;;;;;;;-2.61;84.01;98128.75;5126214;28;20020;-67
2024/02/07 03:38:20;;;;;;;0.50;0.50;;;;;;;-2.62;84.10;98142.28;5107296;28;20055;-67
2024/02/07 03:40:46;;;;;;;0.60;0.60;;;;;;;-2.62;84.18;98138.03;5125962;28;20016;-67
2024/02/07 03:43:11;;;;;;;0.50;0.50;;;;;;;-2.62;84.08;98142.28;5125744;28;20052;-68
2024/02/07 03:45:38;;;;;;;2.20;0.80;;;;;;;-2.60;83.73;98148.22;5107449;28;20020;-68
2024/02/07 03:48:12;;;;;;;0.60;0.60;;;;;;;-2.65;83.55;98147.34;5124873;28;20023;-67
2024/02/07 03:50:37;;;;;;;0.80;0.80;;;;;;;-2.63;83.75;98164.28;5125637;28;20072;-68
2024/02/07 03:53:03;;;;;;;0.50;0.50;;;;;;;-2.64;83.60;98152.44;5125310;28;20024;-68
2024/02/07 03:55:30;;;;;;;0.52;0.52;;;;;;;-2.72;83.63;98161.69;5107354;28;20035;-68
2024/02/07 03:57:56;;;;;;;0.73;0.73;;;;;;;-2.64;83.52;98177.00;5125533;28;20050;-68
2024/02/07 04:00:21;;;;;;;0.55;0.55;;;;;;;-2.62;83.59;98188.03;5125740;28;20462;-68
2024/02/07 04:02:48;;;;;;;0.50;0.50;;;;;;;-2.62;83.52;98190.56;5125506;28;20019;-68
2024/02/07 04:05:16;;;;;;;0.50;0.50;;;;;;;-2.63;83.45;98187.16;5125472;28;20340;-68
2024/02/07 04:07:41;;;;;;;0.55;0.55;;;;;;;-2.63;83.42;98192.25;5125448;28;20057;-68
2024/02/07 04:10:11;;;;;;;0.80;0.80;;;;;;;-2.71;83.37;98195.53;5125358;28;20079;-68
2024/02/07 05:15:40;;;;;;;0.50;0.50;;;;;;;-3.16;82.30;98278.00;5128916;28;20039;-69
2024/02/07 05:18:05;;;;;;;0.73;0.73;;;;;;;-2.94;82.37;98320.59;5110083;28;20019;-68
2024/02/07 05:20:31;;;;;;;0.60;0.60;;;;;;;-2.91;82.17;98330.78;5129096;28;20106;-69
2024/02/07 05:22:56;;;;;;;0.88;0.88;;;;;;;-2.93;82.24;98337.53;5128448;28;20027;-67
2024/02/07 05:25:22;;;;;;;0.50;0.50;;;;;;;-2.90;82.31;98345.19;5128467;28;20028;-68
2024/02/07 05:27:48;;;;;;;9.05;1.27;;;;;;;-2.87;82.13;98347.75;5128619;28;20024;-68
2024/02/07 05:30:14;;;;;;;0.60;0.60;;;;;;;-2.89;82.23;98352.81;5109970;28;20019;-68
2024/02/07 05:32:44;;;;;;;0.60;0.60;;;;;;;-2.87;82.10;98356.25;5110002;28;20046;-66
2024/02/07 05:35:10;;;;;;;0.70;0.70;;;;;;;-2.84;82.00;98360.50;5128649;28;20028;-68
2024/02/07 05:37:36;;;;;;;0.80;0.80;;;;;;;-2.94;81.87;98351.06;5128357;28;20075;-68
2024/02/07 05:40:02;;;;;;;0.70;0.70;;;;;;;-2.93;82.00;98362.91;5127824;28;20038;-68
2024/02/07 05:42:27;;;;;;;0.57;0.57;;;;;;;-2.96;81.81;98360.34;5128353;28;20034;-68
2024/02/07 05:44:52;;;;;;;0.90;0.90;;;;;;;-2.91;81.63;98361.25;5128368;28;20087;-69
2024/02/07 05:47:18;;;;;;;0.50;0.50;;;;;;;-3.01;81.64;98358.59;5128343;28;20028;-69
2024/02/07 05:49:43;;;;;;;1.13;1.13;;;;;;;-2.98;81.73;98367.94;5128042;28;20024;-69
2024/02/07 05:52:09;;;;;;;0.60;0.60;;;;;;;-2.96;81.82;98367.97;5109472;28;20020;-68
2024/02/07 05:54:34;;;;;;;0.68;0.68;;;;;;;-2.97;81.71;98373.88;5127795;28;20024;-67
2024/02/07 05:56:59;;;;;;;0.65;0.65;;;;;;;-3.01;81.68;98367.91;5127943;28;20019;-68
2024/02/07 05:59:25;;;;;;;0.60;0.60;;;;;;;-3.00;81.59;98378.06;5127291;28;20523;-69
2024/02/07 06:01:50;;;;;;;0.57;0.57;;;;;;;-2.99;81.58;98384.03;5126652;28;20075;-68
2024/02/07 06:04:17;;;;;;;0.50;0.50;;;;;;;-2.99;81.81;98387.38;5108472;28;20429;-68
2024/02/07 06:06:45;;;;;;;0.82;0.82;;;;;;;-3.00;81.62;98375.53;5127886;28;20019;-70
2024/02/07 06:09:14;;;;;;;0.50;0.50;;;;;;;-2.96;80.99;98389.13;5108282;28;20122;-68
2024/02/07 06:11:42;;;;;;;0.75;0.75;;;;;;;-2.94;80.93;98409.47;5127198;28;20050;-69
2024/02/07 06:14:08;;;;;;;0.50;0.50;;;;;;;-2.99;81.36;98405.16;5109418;28;20097;-70
2024/02/07 06:16:34;;;;;;;0.60;0.60;;;;;;;-2.99;81.41;98415.31;5109421;28;20019;-68
2024/02/07 06:19:00;;;;;;;0.50;0.50;;;;;;;-3.06;81.49;98411.00;5108922;28;20047;-70
2024/02/07 06:21:26;;;;;;;3.42;2.15;;;;;;;-2.99;81.20;98433.09;5108892;28;20041;-69
2024/02/07 06:23:51;;;;;;;0.60;0.60;;;;;;;-2.92;81.29;98433.19;5127271;28;20047;-68
2024/02/07 06:26:17;;;;;;;0.80;0.80;;;;;;;-2.93;81.60;98434.03;5127247;28;20023;-70
2024/02/07 06:28:45;;;;;;;1.30;1.20;;;;;;;-2.90;81.45;98436.59;5126922;28;20027;-69
2024/02/07 06:31:10;;;;;;;1.48;1.38;;;;;;;-2.84;81.33;98454.47;5127351;28;20503;-69
2024/02/07 06:33:35;;;;;;;0.63;0.63;;;;;;;-2.80;81.37;98438.47;5109046;28;20034;-69
2024/02/07 06:36:01;;;;;;;0.65;0.65;;;;;;;-2.81;80.91;98444.34;5109196;28;20041;-70
2024/02/07 06:38:26;;;;;;;1.48;0.70;;;;;;;-2.91;80.75;98455.22;5126775;28;20023;-69
2024/02/07 06:40:52;;;;;;;0.88;0.88;;;;;;;-2.89;80.59;98473.88;5127510;28;20023;-70
2024/02/07 06:43:17;;;;;;;0.50;0.50;;;;;;;-3.00;81.03;98451.72;5127188;28;20020;-70
2024/02/07 06:45:42;;;;;;;0.57;0.57;;;;;;;-2.91;81.18;98478.06;5127202;28;20486;-69
2024/02/07 06:48:09;;;;;;;0.60;0.60;;;;;;;-2.88;81.00;98473.03;5108463;28;20019;-69
2024/02/07 06:50:34;;;;;;;0.55;0.55;;;;;;;-2.90;80.80;98479.78;5127242;28;20047;-69
2024/02/07 06:53:00;;;;;;;0.68;0.68;;;;;;;-2.91;80.81;98494.19;5126912;28;20040;-69
2024/02/07 06:55:25;;;;;;;0.50;0.50;;;;;;;-2.93;80.81;98494.97;5126017;28;20025;-69
2024/02/07 06:57:50;;;;;;;0.80;0.80;;;;;;;-2.88;80.98;98498.44;5107602;28;20077;-69
2024/02/07 07:00:17;;;;;;;0.70;0.70;;;;;;;-2.84;81.05;98502.72;5108069;28;20040;-69
2024/02/07 07:02:42;;;;;;;0.50;0.50;;;;;;;-2.94;80.89;98493.28;5108490;28;20094;-69
2024/02/07 07:05:08;;;;;;;0.60;0.60;;;;;;;-2.83;80.94;98501.91;5126824;28;20023;-69
2024/02/07 07:07:33;;;;;;;0.60;0.60;;;;;;;-2.85;80.70;98513.72;5126920;28;20042;-69
2024/02/07 07:10:00;;;;;;;0.90;0.90;;;;;;;-2.94;80.45;98513.59;5108332;28;20467;-69
2024/02/07 07:12:25;;;;;;;1.35;1.25;;;;;;;-2.97;80.55;98513.53;5108497;28;20463;-68
2024/02/07 07:14:50;;;;;;;0.50;0.50;;;;;;;-3.00;80.29;98525.34;5126832;28;20037;-70
2024/02/07 07:17:16;;;;;;;0.50;0.50;;;;;;;-3.01;80.37;98532.94;5108342;28;20039;-71
2024/02/07 07:19:41;;;;;;;0.50;0.50;;;;;;;-3.04;80.34;98532.91;5126682;28;20020;-69
2024/02/07 07:22:07;;;;;;;0.50;0.50;;;;;;;-3.07;80.61;98533.72;5126696;28;20023;-70
2024/02/07 07:24:32;;;;;;;0.80;0.80;;;;;;;-3.08;80.23;98537.06;5126509;28;20041;-70
2024/02/07 07:26:57;;;;;;;0.50;0.50;;;;;;;-3.12;80.31;98540.38;5126585;28;20023;-69
2024/02/07 07:29:23;;;;;;;0.80;0.80;;;;;;;-3.11;80.58;98557.31;5126010;28;20460;-70
2024/02/07 07:31:48;;;;;;;0.80;0.80;;;;;;;-3.08;80.51;98564.16;5126459;28;20028;-70
2024/02/07 07:34:13;;;;;;;0.70;0.70;;;;;;;-3.05;80.63;98562.50;5126261;28;20464;-68
2024/02/07 07:36:39;;;;;;;0.50;0.50;;;;;;;-3.06;79.95;98555.72;5108013;28;20062;-69
2024/02/07 07:39:04;;;;;;;2.88;1.10;;;;;;;-3.06;80.42;98573.50;5107637;28;20379;-68
2024/02/07 07:41:29;;;;;;;0.50;0.50;;;;;;;-3.09;80.16;98564.97;5126153;28;20027;-69
2024/02/07 07:43:57;;;;;;;0.60;0.60;;;;;;;-3.04;80.04;98571.84;5126172;28;20019;-71
2024/02/07 07:46:22;;;;;;;0.60;0.60;;;;;;;-3.00;80.17;98587.97;5126288;28;20024;-68
2024/02/07 07:48:48;;;;;;;0.60;0.60;;;;;;;-3.02;79.91;98593.00;5126087;28;20417;-69
2024/02/07 07:51:19;;;;;;;0.50;0.50;;;;;;;-3.09;79.55;98580.19;5126337;28;20047;-69
2024/02/07 07:53:46;;;;;;;0.60;0.60;;;;;;;-3.10;79.81;98599.66;5125853;28;20039;-69
2024/02/07 07:56:11;;;;;;;0.60;0.60;;;;;;;-3.09;79.78;98610.66;5107749;28;20023;-68
2024/02/07 07:58:38;;;;;;;0.50;0.50;;;;;;;-3.12;79.59;98614.00;5125863;28;20620;-69
2024/02/07 08:01:13;;;;;;;0.50;0.50;;;;;;;-3.15;79.48;98617.34;5126016;28;20031;-69
2024/02/07 08:03:38;;;;;;;1.52;0.93;;;;;;;-3.13;79.56;98615.69;5126120;28;20058;-69
2024/02/07 08:06:04;;;;;;;0.50;0.50;;;;;;;-3.14;79.46;98608.03;5126069;28;20024;-69
2024/02/07 08:08:29;;;;;;;0.60;0.60;;;;;;;-3.12;79.53;98608.94;5125347;28;20084;-70
2024/02/07 08:10:55;;;;;;;0.70;0.70;;;;;;;-3.10;79.65;98617.44;5126167;28;20020;-70
2024/02/07 08:13:20;;;;;;;0.60;0.60;;;;;;;-3.03;79.92;98619.25;5125725;28;20023;-69
2024/02/07 08:15:46;;;;;;;0.70;0.70;;;;;;;-3.04;79.51;98603.97;5107523;28;20045;-70
2024/02/07 08:18:11;;;;;;;3.42;0.95;;;;;;;-3.01;79.45;98617.59;5107763;28;20028;-70
2024/02/07 08:20:37;;;;;;;0.70;0.70;;;;;;;-2.96;79.55;98620.22;5125902;28;20087;-70
2024/02/07 08:23:02;;;;;;;0.60;0.60;;;;;;;-2.93;79.38;98637.19;5107435;28;20027;-69
2024/02/07 08:25:27;;;;;;;0.60;0.60;;;;;;;-3.03;79.29;98636.16;5125581;28;20107;-68
2024/02/07 08:27:53;;;;;;;0.50;0.50;;;;;;;-3.00;79.10;98648.91;5125557;28;20035;-69
2024/02/07 08:30:20;;;;;;;0.50;0.50;;;;;;;-3.15;79.49;98619.91;5125702;28;20520;-70
2024/02/07 08:32:45;;;;;;;0.90;0.90;;;;;;;-2.92;79.46;98649.91;5107763;28;20026;-69
2024/02/07 08:35:10;;;;;;;0.60;0.60;;;;;;;-2.93;79.40;98653.28;5111399;28;20145;-70
2024/02/07 08:37:36;;;;;;;0.50;0.50;;;;;;;-2.88;79.58;98651.69;5129918;28;20031;-70
2024/02/07 08:40:01;;;;;;;1.08;0.65;;;;;;;-2.94;79.30;98641.38;5129733;28;20020;-70
2024/02/07 08:42:27;;;;;;;1.05;1.05;;;;;;;-2.77;79.34;98656.09;5129544;28;20047;-69
2024/02/07 08:44:53;;;;;;;0.73;0.73;;;;;;;-2.75;79.46;98664.59;5129692;28;20020;-69
2024/02/07 08:47:18;;;;;;;0.60;0.60;;;;;;;-2.74;79.19;98663.75;5129653;28;20050;-70
2024/02/07 08:49:43;;;;;;;0.60;0.60;;;;;;;-2.77;79.40;98651.88;5129067;28;20031;-69
2024/02/07 08:52:09;;;;;;;0.75;0.75;;;;;;;-2.69;79.49;98666.38;5129385;28;20058;-71
2024/02/07 08:54:34;;;;;;;2.67;1.35;;;;;;;-2.66;79.47;98654.59;5110835;28;20047;-69
2024/02/07 08:57:00;;;;;;;0.98;0.98;;;;;;;-2.58;79.69;98662.34;5129627;28;20027;-70
2024/02/07 08:59:26;;;;;;;0.60;0.60;;;;;;;-2.45;79.94;98665.94;5129143;28;20046;-69
2024/02/07 09:01:52;;;;;;;1.10;1.10;;;;;;;-2.36;79.73;98675.38;5129497;28;20523;-71
2024/02/07 09:04:17;;;;;;;0.60;0.60;;;;;;;-2.45;79.20;98659.97;5129261;28;20049;-70
2024/02/07 09:06:45;;;;;;;0.60;0.60;;;;;;;-2.50;79.19;98680.25;5129305;28;20023;-69
2024/02/07 09:09:11;;;;;;;0.80;0.80;;;;;;;-2.49;79.33;98680.28;5129094;28;20102;-70
2024/02/07 09:11:36;;;;;;;0.60;0.60;;;;;;;-2.53;79.47;98677.66;5129280;28;20047;-70
2024/02/07 09:14:02;;;;;;;0.70;0.70;;;;;;;-2.59;79.39;98678.41;5097503;22;20045;-67
2024/02/07 09:16:27;;;;;;;0.52;0.52;;;;;;;-2.54;79.60;98681.88;5067305;28;20035;-67
2024/02/07 09:18:53;;;;;;;0.52;0.52;;;;;;;-2.55;79.56;98685.25;5067940;28;20024;-66
2024/02/07 09:21:18;;;;;;;2.45;1.50;;;;;;;-2.57;79.52;98684.34;5068146;28;20021;-69
2024/02/07 09:23:46;;;;;;;0.60;0.60;;;;;;;-2.53;79.43;98692.91;5068686;28;20490;-70
2024/02/07 09:26:12;;;;;;;0.55;0.55;;;;;;;-2.69;79.30;98671.44;5066920;28;20021;-69
2024/02/07 09:28:37;;;;;;;0.85;0.85;;;;;;;-2.63;79.28;98681.72;5066365;28;20032;-70
2024/02/07 09:31:03;;;;;;;0.70;0.70;;;;;;;-2.59;79.38;98698.75;5066823;28;20020;-70
2024/02/07 09:33:28;;;;;;;0.70;0.70;;;;;;;-2.54;79.69;98701.38;5067892;28;20021;-70
2024/02/07 09:35:55;;;;;;;0.50;0.50;;;;;;;-2.51;79.29;98698.88;5068016;28;20533;-70
2024/02/07 09:38:21;;;;;;;0.70;0.70;;;;;;;-2.57;79.39;98701.31;5067649;28;20096;-70
2024/02/07 09:40:52;;;;;;;0.50;0.50;;;;;;;-2.60;79.29;98701.25;5066421;28;20025;-70
2024/02/07 09:43:18;;;;;;;0.60;0.60;;;;;;;-2.58;79.29;98707.19;5083585;23;20120;-67
2024/02/07 09:45:47;;;;;;;0.82;0.82;;;;;;;-2.66;79.14;98704.53;5091503;23;20108;-67
2024/02/07 09:48:21;;;;;;;0.80;0.80;;;;;;;-2.66;79.18;98707.06;5115181;23;20048;-66
2024/02/07 09:50:48;;;;;;;0.70;0.70;;;;;;;-2.67;78.90;98715.53;5132043;22;20054;-71
2024/02/07 09:53:14;;;;;;;0.68;0.68;;;;;;;-2.68;79.29;98714.66;5127451;28;20020;-71
2024/02/07 09:55:41;;;;;;;0.55;0.55;;;;;;;-2.60;79.42;98724.13;5127952;28;20122;-71
2024/02/07 09:58:08;;;;;;;1.27;1.27;;;;;;;-2.60;79.45;98716.50;5128313;28;20023;-71
2024/02/07 10:00:35;;;;;;;0.77;0.77;;;;;;;-2.68;78.97;98717.22;5127274;28;20096;-71
2024/02/07 10:03:05;;;;;;;0.60;0.60;;;;;;;-2.72;78.99;98732.38;5127304;28;20023;-71
2024/02/07 10:05:33;;;;;;;0.60;0.60;;;;;;;-2.75;79.46;98728.94;5128266;28;20027;-72
2024/02/07 10:07:59;;;;;;;0.90;0.90;;;;;;;-2.73;79.25;98734.03;5128112;28;20024;-71
2024/02/07 10:10:26;;;;;;;0.50;0.50;;;;;;;-2.69;79.37;98732.44;5127796;28;20521;-71
2024/02/07 10:12:54;;;;;;;0.50;0.50;;;;;;;-2.58;79.41;98738.56;5109476;28;20028;-71
2024/02/07 10:15:21;;;;;;;1.20;1.10;;;;;;;-2.60;79.32;98727.50;5109284;28;20107;-71
2024/02/07 10:17:47;;;;;;;0.70;0.70;;;;;;;-2.47;79.28;98738.75;5127548;28;20036;-71
2024/02/07 10:20:13;;;;;;;0.50;0.50;;;;;;;-2.31;79.67;98749.16;5127418;28;20069;-71
2024/02/07 10:22:42;;;;;;;1.85;1.75;;;;;;;-2.19;79.94;98757.00;5127609;28;20029;-71
2024/02/07 10:25:15;;;;;;;0.60;0.60;;;;;;;-2.13;79.64;98754.59;5127414;28;20494;-71
2024/02/07 10:27:42;;;;;;;2.60;0.90;;;;;;;-2.09;79.27;98760.56;5109156;28;20026;-72
2024/02/07 10:30:08;;;;;;;0.60;0.60;;;;;;;-2.10;79.42;98756.31;5127526;28;20016;-71
2024/02/07 10:32:37;;;;;;;0.77;0.77;;;;;;;-2.01;79.77;98761.53;5127582;28;20039;-71
2024/02/07 10:35:04;;;;;;;0.50;0.50;;;;;;;-1.88;79.48;98770.22;5109069;28;20023;-71
2024/02/07 10:37:38;;;;;;;0.60;0.60;;;;;;;-1.82;79.42;98761.81;5127609;28;20045;-72
2024/02/07 10:40:04;;;;;;;0.85;0.85;;;;;;;-1.84;79.12;98765.19;5127384;28;20026;-71
2024/02/07 10:42:30;;;;;;;1.17;1.13;;;;;;;-1.91;78.73;98766.78;5127563;28;20055;-71
2024/02/07 10:45:03;;;;;;;0.50;0.50;;;;;;;-1.85;79.31;98764.31;5127803;28;20019;-71
2024/02/07 10:47:28;;;;;;;0.60;0.60;;;;;;;-1.76;79.45;98772.09;5127305;28;20027;-72
2024/02/07 10:49:53;;;;;;;0.60;0.60;;;;;;;-1.66;79.41;98774.78;5126853;28;20112;-71
2024/02/07 10:52:19;;;;;;;1.27;1.20;;;;;;;-1.56;79.62;98776.63;5127379;28;20019;-72
2024/02/07 10:54:45;;;;;;;0.50;0.50;;;;;;;-1.52;79.22;98786.00;5108593;28;20027;-70
2024/02/07 10:57:11;;;;;;;0.80;0.80;;;;;;;-1.47;79.47;98780.97;5108365;28;20020;-72
2024/02/07 10:59:39;;;;;;;0.63;0.63;;;;;;;-1.47;79.13;98787.78;5127010;28;20016;-71
2024/02/07 11:02:14;;;;;;;0.70;0.70;;;;;;;-1.48;79.26;98786.91;5126856;28;20047;-70
2024/02/07 11:04:41;;;;;;;0.57;0.57;;;;;;;-1.42;79.15;98787.00;5108965;28;20472;-71
2024/02/07 11:07:13;;;;;;;0.50;0.50;;;;;;;-1.33;79.55;98782.88;5127147;28;20027;-71
2024/02/07 11:09:42;;;;;;;0.55;0.55;;;;;;;-1.29;78.92;98785.47;5126572;28;20027;-72
2024/02/07 11:12:09;;;;;;;0.50;0.50;;;;;;;-1.31;78.57;98791.41;5126896;28;20054;-71
2024/02/07 11:14:36;;;;;;;0.73;0.73;;;;;;;-1.21;79.11;98792.34;5126720;28;20019;-72
2024/02/07 11:17:02;;;;;;;0.50;0.50;;;;;;;-1.15;78.92;98783.09;5108110;28;20034;-71
2024/02/07 11:19:28;;;;;;;1.92;0.60;;;;;;;-1.10;78.69;98790.81;5126805;28;20023;-72
2024/02/07 11:21:55;;;;;;;0.63;0.63;;;;;;;-1.21;78.34;98792.34;5126707;28;20494;-72
2024/02/07 11:24:23;;;;;;;0.57;0.57;;;;;;;-1.25;78.49;98797.41;5126341;28;20030;-71
2024/02/07 11:26:49;;;;;;;0.50;0.50;;;;;;;-1.27;78.25;98806.75;5126578;28;20027;-72
2024/02/07 11:29:15;;;;;;;0.50;0.50;;;;;;;-1.37;78.16;98804.88;5126356;28;20034;-71
2024/02/07 11:31:43;;;;;;;1.15;1.15;;;;;;;-1.37;78.31;98815.06;5126335;28;20020;-72
2024/02/07 11:34:08;;;;;;;0.77;0.77;;;;;;;-1.30;78.62;98823.66;5126201;28;20030;-72
2024/02/07 11:36:34;;;;;;;0.70;0.70;;;;;;;-1.23;78.79;98817.81;5126328;28;20023;-72
2024/02/07 11:38:59;;;;;;;1.95;1.17;;;;;;;-1.12;78.97;98821.34;5126301;28;20015;-72
2024/02/07 11:41:26;;;;;;;1.67;0.88;;;;;;;-1.10;78.33;98826.47;5107906;28;20306;-71
2024/02/07 11:43:54;;;;;;;0.52;0.52;;;;;;;-1.00;78.56;98833.41;5126119;28;20023;-71
2024/02/07 11:46:21;;;;;;;7.60;1.25;;;;;;;-1.01;78.47;98826.59;5107790;28;20058;-72
2024/02/07 11:48:53;;;;;;;2.55;1.10;;;;;;;-0.87;78.16;98828.47;5126028;28;20054;-71
2024/02/07 11:51:22;;;;;;;0.70;0.70;;;;;;;-0.95;77.90;98830.06;5126005;28;20047;-71
2024/02/07 11:53:47;;;;;;;0.77;0.77;;;;;;;-1.16;77.12;98841.66;5125782;28;20031;-71
2024/02/07 11:56:18;;;;;;;0.60;0.60;;;;;;;-1.25;76.65;98835.59;5107611;28;20015;-71
2024/02/07 11:58:46;;;;;;;3.20;1.15;;;;;;;-1.27;76.94;98829.66;5126126;28;20015;-71
2024/02/07 12:01:12;;;;;;;0.60;0.60;;;;;;;-1.20;77.63;98835.69;5126036;28;20026;-71
2024/02/07 12:03:38;;;;;;;0.50;0.50;;;;;;;-1.09;77.35;98837.53;5107741;28;20027;-72
2024/02/07 12:06:10;;;;;;;0.90;0.80;;;;;;;-0.96;77.55;98843.63;5125784;28;20080;-71
2024/02/07 12:08:37;;;;;;;0.50;0.50;;;;;;;-0.86;77.23;98848.00;5124987;28;20027;-69
2024/02/07 12:11:04;;;;;;;0.65;0.65;;;;;;;-0.76;77.59;98842.19;5107611;28;20019;-72
2024/02/07 12:13:32;;;;;;;0.75;0.75;;;;;;;-0.70;77.34;98845.66;5125850;28;20044;-72
2024/02/07 12:16:00;;;;;;;0.50;0.50;;;;;;;-0.62;77.17;98849.16;5125650;28;20041;-71
2024/02/07 12:18:26;;;;;;;1.20;1.20;;;;;;;-0.54;76.48;98847.53;5125872;28;20114;-71
2024/02/07 12:20:52;;;;;;;0.70;0.70;;;;;;;-0.56;76.21;98839.00;5125861;28;20023;-69
2024/02/07 12:23:17;;;;;;;0.77;0.77;;;;;;;-0.34;76.60;98851.16;5125691;28;20085;-70
2024/02/07 12:25:42;;;;;;;0.50;0.50;;;;;;;-0.24;77.10;98841.91;5125500;28;20051;-67
2024/02/07 12:28:11;;;;;;;0.95;0.88;;;;;;;-0.30;76.27;98846.09;5125435;28;20511;-70
2024/02/07 12:30:37;;;;;;;0.60;0.60;;;;;;;-0.23;75.94;98841.06;5125585;28;20079;-70
2024/02/07 12:33:03;;;;;;;0.70;0.70;;;;;;;-0.15;76.39;98854.75;5125771;28;20075;-71
2024/02/07 12:35:29;;;;;;;0.60;0.60;;;;;;;-0.10;75.93;98854.81;5125584;28;20030;-70